Reno (UNR), Valley Road, Nevada Weather observations

Data are for observation ending at time listed.
 Day   Time    Ave.   Ave.  Ave.  Vector   Max.    Total    Solar   Rl      Baro.   Ave.  
  of    of     Air    Rel.  Wind   Wind    Wind   Precip.   Rad.    in      Pres.   Soil  
Year   Day     Temp.  Hum.  Speed  Dir.    Gust                                     Temp. 
2015   (PST)    F      %     mph   deg.    mph      in.     W/m2    W/m2     mb.     F   
-----------------------------------------------------------------------------------------
 144    3:40   47.7    97    1.2   314      2.3     0.00       0     320    857.1   57.4
 144    3:50   47.5    97    2.8   325      3.4     0.00       0     324    857.1   57.3
 144    4:00   47.1    97    1.2   328      2.6     0.00       0     324    857.2   57.3
 144    4:10   46.9    98    1.5   309      2.3     0.00       0     330    857.3   57.2
 144    4:20   46.5    98    1.7   325      2.3     0.00       0     329    857.3   57.1
 144    4:30   46.3    98    0.8   304      1.7     0.00       1     329    857.4   57.0
 144    4:40   46.1    98    0.3   302      1.6     0.00       2     346    857.5   57.0
 144    4:50   46.3    98    0.0   210      1.2     0.00       8     350    857.5   56.9
 144    5:00   47.0    98    2.1   233      3.3     0.00      19     345    857.5   56.8
 144    5:10   47.6    97    1.6   300      2.7     0.00      33     337    857.5   56.7
 144    5:20   47.8    96    1.8   303      3.1     0.00      68     335    857.4   56.6
 144    5:30   49.8    94    0.0     0      0.0     0.00      98     334    857.5   56.5
 144    5:40   52.4    87    0.5   134      1.4     0.00     118     324    857.6   56.5
 144    5:50   52.5    85    2.8   147      4.5     0.00     149     307    857.6   56.4
 144    6:00   52.8    85    1.9   132      3.3     0.00     176     309    857.5   56.3
 144    6:10   54.8    81    0.6    85      2.0     0.00     205     311    857.4   56.2
 144    6:20   56.4    77    1.3    73      3.0     0.00     229     315    857.2   56.2
 144    6:30   56.8    74    1.8    75      3.1     0.00     272     315    856.9   56.1
 144    6:40   55.6    78    2.6   141      5.6     0.00     305     318    856.6   56.0
 144    6:50   55.5    80    3.3   150      7.0     0.00     339     320    856.3   56.0
 144    7:00   56.1    78    2.5   110      4.5     0.00     373     322    856.2   56.0
 144    7:10   56.7    76    3.0   112      6.2     0.00     407     325    856.0   55.9
 144    7:20   57.1    76    2.6   146      5.2     0.00     441     328    855.8   55.9
 144    7:30   57.2    76    3.6   135      6.2     0.00     474     331    855.7   55.9
 144    7:40   57.6    75    3.3   144      6.7     0.00     509     333    855.7   56.0
 144    7:50   58.2    73    2.9   126      5.6     0.00     541     334    855.6   56.0
 144    8:00   58.9    72    3.0   124      6.4     0.00     575     337    855.5   56.2
 144    8:10   59.6    70    3.7   134      8.7     0.00     609     341    855.3   56.3
 144    8:20   60.4    66    4.9    44      9.8     0.00     652     343    855.2   56.5
 144    8:30   60.9    65    4.9    12      8.7     0.00     678     343    855.0   56.7
 144    8:40   61.6    61    2.6    17      5.9     0.00     523     341    854.9   56.9
 144    8:50   60.3    64    3.1    30      7.2     0.00     209     339    854.8   57.2
 144    9:00   60.1    64    3.2    12      8.4     0.00     410     338    854.7   57.4
 144    9:10   61.1    62    3.4   104      7.9     0.00     677     344    854.6   57.7
 144    9:20   64.2    58    2.8    38      7.0     0.00     881     351    854.5   57.9
 144    9:30   64.6    57    3.3    45      8.1     0.00     394     350    854.3   58.1
 144    9:40   63.2    58    2.5    95      6.3     0.00     601     347    854.1   58.3
 144    9:50   63.0    57    3.2   230      5.8     0.00     781     352    854.0   58.4
 144   10:00   65.1    56    2.8    28      9.5     0.00     961     358    853.8   58.5
 144   10:10   66.0    55    4.4    30     10.9     0.00     860     360    853.5   58.6
 144   10:20   65.8    55    4.4    36      7.5     0.00     970     363    853.3   58.7
 144   10:30   65.6    56    4.5    13      8.5     0.00     980     364    853.1   58.9
 144   10:40   67.0    53    3.6    64      7.3     0.00     980     363    852.9   59.1
 144   10:50   66.9    52    3.8   132      8.3     0.00    1023     369    852.7   59.4
 144   11:00   67.5    51    4.9   143      9.7     0.00    1015     369    852.4   59.6
 144   11:10   67.5    51    5.5   101     12.4     0.00    1038     374    852.1   59.9
 144   11:20   67.5    51    5.7    51     10.8     0.00    1087     377    851.9   60.3
 144   11:30   68.7    48    2.8   328      6.5     0.00    1191     397    851.7   60.6
 144   11:40   69.1    49    4.6    10     10.3     0.00     645     395    851.4   61.0
 144   11:50   68.4    49    3.8    31      9.4     0.00     533     383    851.2   61.4
 144   12:00   67.7    48    3.6    50      8.6     0.00     452     377    851.1   61.8
 144   12:10   69.9    46    2.4   137      7.0     0.00     999     388    850.9   62.2
 144   12:20   70.6    44    3.8    24      8.4     0.00     470     380    850.7   62.5
 144   12:30   69.0    44    3.3   338     10.7     0.00     693     382    850.5   62.9
 144   12:40   69.8    42    2.2   161      5.2     0.00     572     392    850.4   63.2
 144   12:50   68.6    45    3.3    18      7.9     0.00     222     378    850.2   63.5
 144   13:00   69.6    45    3.8     1     10.2     0.00    1030     384    850.2   63.7
 144   13:10   70.4    42    3.5   335      7.3     0.00     978     382    850.1   64.0
 144   13:20   72.3    37    2.8   186      6.8     0.00    1067     383    849.9   64.2
 144   13:30   73.8    37    1.4   298      4.0     0.00    1064     388    849.7   64.3
 144   13:40   74.2    37    2.3   325      8.3     0.00     801     401    849.3   64.5
 144   13:50   71.0    41    5.9   316     12.7     0.00     193     392    849.1   64.7
 144   14:00   69.6    40    3.7   288      8.1     0.00     651     381    849.0   64.9
 144   14:10   72.7    36    3.9   263     10.1     0.00     995     394    848.9   65.1
 144   14:20   73.0    37    5.4   320     13.4     0.00     912     404    848.8   65.3
 144   14:30   72.2    37    4.5   293     10.7     0.00     836     390    848.5   65.4
 144   14:40   73.4    35    0.9    75      3.8     0.00     542     384    848.3   65.6
 144   14:50   75.7    35    4.7   348      9.7     0.00     932     391    848.2   65.8
 144   15:00   75.0    31    3.3   318     13.0     0.00     839     393    847.9   66.0
 144   15:10   72.9    35    7.4    27     14.2     0.00     301     392    847.8   66.3
 144   15:20   73.0    34    5.6   331     11.3     0.00     809     379    847.7   66.5
 144   15:30   73.8    31    5.8   318     10.6     0.00     716     379    847.5   66.7
 144   15:40   73.7    33    6.5    10     12.8     0.00     425     380    847.5   66.9
 144   15:50   72.5    32    3.9    29      7.8     0.00     156     373    847.3   67.1
 144   16:00   72.0    34    7.1   342     15.3     0.00     504     373    847.3   67.3
 144   16:10   72.9    33    9.0   333     16.2     0.00     616     373    847.3   67.5
 144   16:20   72.9    35    7.7   342     14.4     0.00     586     375    847.4   67.6
 144   16:30   73.7    36    9.1   345     18.7     0.00     551     384    847.4   67.7
 144   16:40   71.2    38    9.2   347     15.9     0.00     194     380    847.5   67.8
 144   16:50   70.2    41    8.9   351     16.5     0.00     177     383    847.5   67.9
 144   17:00   70.9    40    7.3   331     13.1     0.00     416     389    847.6   68.0
 144   17:10   72.0    38    8.8   326     14.7     0.00     382     388    847.7   68.1
 144   17:20   70.2    40    8.1   314     15.1     0.00      85     372    847.8   68.1
 144   17:30   69.8    43    6.2   271     10.5     0.00      78     368    848.0   68.1
 144   17:40   69.7    45    7.2   262     13.3     0.00     235     379    848.3   68.2
 144   17:50   69.6    46    8.4   277     14.4     0.00     188     383    848.5   68.2
 144   18:00   68.8    47    7.8   276     14.9     0.00     139     374    848.7   68.2
 144   18:10   67.4    51    9.3   272     15.7     0.00      46     378    848.8   68.1
 144   18:20   65.9    52   10.5   276     19.2     0.00      20     389    849.2   68.1
 144   18:30   62.7    64   12.8   289     24.6     0.00      13     393    849.8   68.0
 144   18:40   59.6    65   13.2   264     23.5     0.00      31     381    850.3   68.0
 144   18:50   60.4    61    9.6   250     20.1     0.00      27     380    850.5   67.9
 144   19:00   61.0    60    7.2   263     11.5     0.00      14     377    850.9   67.8
 144   19:10   60.9    63    4.7   271      7.8     0.00       6     378    851.1   67.7
 144   19:20   61.4    63    4.7   258      9.8     0.00       3     371    851.0   67.5
 144   19:30   61.4    65    6.7   284     14.0     0.00       1     354    851.2   67.4
 144   19:40   61.6    63    9.4   291     16.4     0.00       0     343    851.3   67.2
 144   19:50   61.6    61    8.5   283     16.4     0.00       0     340    851.4   67.1
 144   20:00   61.5    62    8.7   282     15.2     0.00       0     340    851.4   66.9
 144   20:10   61.2    63    8.7   292     14.4     0.00       0     339    851.6   66.7
 144   20:20   61.1    64    6.2   281     13.1     0.00       0     338    851.7   66.6
 144   20:30   61.3    63    7.7   263     14.6     0.00       0     338    851.8   66.4
 144   20:40   61.4    62    6.2   273     12.6     0.00       0     360    852.0   66.2
 144   20:50   61.6    61    5.2   302     13.7     0.00       0     372    852.3   66.0
 144   21:00   61.6    62    5.2   278     10.7     0.00       0     372    852.3   65.9
 144   21:10   61.5    63    8.3   264     18.6     0.00       0     372    852.3   65.7
 144   21:20   61.5    63    9.5   261     19.3     0.00       0     375    852.3   65.6
 144   21:30   61.2    62    9.7   259     18.1     0.00       0     380    852.3   65.4
 144   21:40   60.8    64    7.8   279     16.4     0.00       0     379    852.5   65.2
 144   21:50   60.3    64    6.3   267     12.5     0.00       0     366    852.4   65.1
 144   22:00   60.1    64    6.4   263     12.2     0.00       0     358    852.4   65.0
 144   22:10   60.2    62    5.8   283     13.0     0.00       0     360    852.3   64.8
 144   22:20   60.4    62    7.2   291     15.2     0.00       0     369    852.3   64.7
 144   22:30   60.2    62    5.1   322      9.4     0.00       0     368    852.4   64.6
 144   22:40   60.6    60    6.4   301     11.7     0.00       0     372    852.5   64.4
 144   22:50   60.6    61    2.3   320      6.1     0.00       0     377    852.7   64.3
 144   23:00   60.4    62    2.8   263      5.7     0.00       0     375    852.7   64.2
 144   23:10   61.2    59    2.1   213      4.9     0.00       0     376    852.7   64.1
 144   23:20   61.3    59    3.6   236      6.2     0.00       0     373    852.8   64.0
 144   23:30   61.0    60    1.7   269      3.8     0.00       0     359    852.9   63.9
 144   23:40   60.5    62    3.0   184      5.8     0.00       0     357    852.8   63.8
 144   23:50   60.2    63    3.4   240      6.3     0.00       0     365    852.8   63.6
 145    0:00   60.0    62    4.3   252     10.9     0.00       0     365    852.8   63.6
 145    0:10   59.7    62    3.2   255      7.4     0.00       0     360    852.8   63.4
 145    0:20   59.2    64    1.1   332      2.9     0.00       0     366    852.7   63.4
 145    0:30   58.4    67    2.8   326      5.2     0.00       0     367    852.8   63.2
 145    0:40   58.8    65    2.7   288      5.3     0.00       0     357    852.9   63.2
 145    0:50   58.9    66    2.2   298      3.8     0.00       0     343    852.9   63.1
 145    1:00   58.6    66    1.5   282      2.8     0.00       0     333    852.9   63.0
 145    1:10   57.8    70    2.6   324      4.2     0.00       0     325    852.9   62.9
 145    1:20   56.3    74    1.6   328      3.1     0.00       0     327    853.0   62.8
 145    1:30   56.1    74    0.7   189      3.1     0.00       0     324    853.1   62.7
 145    1:40   56.6    71    2.6   203      4.8     0.00       0     325    853.2   62.6
 145    1:50   56.9    71    3.1   270      5.2     0.00       0     327    853.3   62.5
 145    2:00   55.7    75    3.5   316      5.0     0.00       0     326    853.3   62.4
 145    2:10   55.1    78    2.3   329      3.1     0.00       0     324    853.3   62.3
 145    2:20   53.7    81    1.5     8      2.5     0.00       0     327    853.4   62.2
 145    2:30   52.7    85    0.9   316      2.3     0.00       0     329    853.5   62.1
 145    2:40   52.6    86    0.9   353      2.5     0.00       0     326    853.5   62.0
 145    2:50   52.6    86    0.9   316      2.4     0.00       0     322    853.5   61.9
 145    3:00   52.9    85    2.4   326      3.5     0.00       0     322    853.6   61.8
 145    3:10   52.7    86    1.5   307      3.3     0.00       0     325    853.7   61.7
 145    3:20   52.5    86    1.5   311      2.8     0.00       0     321    853.8   61.6
 145    3:30   52.0    87    0.5   185      2.2     0.00       0     321    853.8   61.5

Return to Reno (UNR), Nevada graphs page.


Western Regional Climate Center,wrcc@dri.edu